sensor_id;sensor_type;location;lat;lon;timestamp;temperature;humidity
68943;DHT22;60852;52.190;4.422;2022-11-14T00:01:12;9.34;75.05
68943;DHT22;60852;52.190;4.422;2022-11-14T00:03:38;9.28;75.12
68943;DHT22;60852;52.190;4.422;2022-11-14T00:06:05;9.21;75.14
68943;DHT22;60852;52.190;4.422;2022-11-14T00:08:31;9.21;75.27
68943;DHT22;60852;52.190;4.422;2022-11-14T00:10:57;9.20;75.14
68943;DHT22;60852;52.190;4.422;2022-11-14T00:13:22;9.21;75.28
68943;DHT22;60852;52.190;4.422;2022-11-14T00:15:49;9.18;75.25
68943;DHT22;60852;52.190;4.422;2022-11-14T00:18:18;9.17;75.14
68943;DHT22;60852;52.190;4.422;2022-11-14T00:20:51;9.17;75.27
68943;DHT22;60852;52.190;4.422;2022-11-14T00:23:19;9.17;75.14
68943;DHT22;60852;52.190;4.422;2022-11-14T00:25:45;9.21;74.96
68943;DHT22;60852;52.190;4.422;2022-11-14T00:28:12;9.18;74.59
68943;DHT22;60852;52.190;4.422;2022-11-14T00:30:37;9.17;74.60
68943;DHT22;60852;52.190;4.422;2022-11-14T00:33:03;9.18;74.42
68943;DHT22;60852;52.190;4.422;2022-11-14T00:35:28;9.18;74.58
68943;DHT22;60852;52.190;4.422;2022-11-14T00:37:54;9.14;74.60
68943;DHT22;60852;52.190;4.422;2022-11-14T00:40:19;9.10;74.86
68943;DHT22;60852;52.190;4.422;2022-11-14T00:42:44;9.13;74.82
68943;DHT22;60852;52.190;4.422;2022-11-14T00:45:10;9.10;74.70
68943;DHT22;60852;52.190;4.422;2022-11-14T00:47:35;9.13;74.59
68943;DHT22;60852;52.190;4.422;2022-11-14T00:50:02;9.11;74.44
68943;DHT22;60852;52.190;4.422;2022-11-14T00:52:28;9.10;74.44
68943;DHT22;60852;52.190;4.422;2022-11-14T00:54:53;9.07;74.60
68943;DHT22;60852;52.190;4.422;2022-11-14T00:57:18;9.05;74.70
68943;DHT22;60852;52.190;4.422;2022-11-14T00:59:44;9.01;74.66
68943;DHT22;60852;52.190;4.422;2022-11-14T01:02:09;8.96;74.85
68943;DHT22;60852;52.190;4.422;2022-11-14T01:04:35;8.93;74.96
68943;DHT22;60852;52.190;4.422;2022-11-14T01:07:00;8.90;74.81
68943;DHT22;60852;52.190;4.422;2022-11-14T01:09:25;8.80;74.84
68943;DHT22;60852;52.190;4.422;2022-11-14T01:11:51;8.81;74.85
68943;DHT22;60852;52.190;4.422;2022-11-14T01:14:16;8.73;74.86
68943;DHT22;60852;52.190;4.422;2022-11-14T01:16:42;8.73;74.88
68943;DHT22;60852;52.190;4.422;2022-11-14T01:19:08;8.69;74.95
68943;DHT22;60852;52.190;4.422;2022-11-14T01:21:33;8.62;75.13
68943;DHT22;60852;52.190;4.422;2022-11-14T01:23:58;8.59;75.49
68943;DHT22;60852;52.190;4.422;2022-11-14T01:26:24;8.59;75.66
68943;DHT22;60852;52.190;4.422;2022-11-14T01:28:49;8.60;75.43
68943;DHT22;60852;52.190;4.422;2022-11-14T01:31:18;8.57;75.32
68943;DHT22;60852;52.190;4.422;2022-11-14T01:33:47;8.55;75.48
68943;DHT22;60852;52.190;4.422;2022-11-14T01:36:13;8.49;75.74
68943;DHT22;60852;52.190;4.422;2022-11-14T01:38:39;8.41;75.86
68943;DHT22;60852;52.190;4.422;2022-11-14T01:41:05;8.36;76.06
68943;DHT22;60852;52.190;4.422;2022-11-14T01:43:31;8.41;76.21
68943;DHT22;60852;52.190;4.422;2022-11-14T01:49:07;8.42;75.91
68943;DHT22;60852;52.190;4.422;2022-11-14T01:52:09;8.41;75.83
68943;DHT22;60852;52.190;4.422;2022-11-14T01:54:32;8.38;75.62
68943;DHT22;60852;52.190;4.422;2022-11-14T01:57:01;8.34;75.85
68943;DHT22;60852;52.190;4.422;2022-11-14T01:59:37;8.32;75.64
68943;DHT22;60852;52.190;4.422;2022-11-14T02:02:13;8.26;75.72
68943;DHT22;60852;52.190;4.422;2022-11-14T02:04:46;8.24;75.92
68943;DHT22;60852;52.190;4.422;2022-11-14T02:07:14;8.18;76.32
68943;DHT22;60852;52.190;4.422;2022-11-14T02:09:43;8.18;76.17
68943;DHT22;60852;52.190;4.422;2022-11-14T02:12:14;8.14;76.05
68943;DHT22;60852;52.190;4.422;2022-11-14T02:14:43;8.01;76.66
68943;DHT22;60852;52.190;4.422;2022-11-14T02:17:10;7.94;77.07
68943;DHT22;60852;52.190;4.422;2022-11-14T02:19:47;7.81;77.41
68943;DHT22;60852;52.190;4.422;2022-11-14T02:22:13;7.73;77.96
68943;DHT22;60852;52.190;4.422;2022-11-14T02:24:39;7.71;78.06
68943;DHT22;60852;52.190;4.422;2022-11-14T02:27:06;7.73;77.95
68943;DHT22;60852;52.190;4.422;2022-11-14T02:29:32;7.71;78.08
68943;DHT22;60852;52.190;4.422;2022-11-14T02:31:58;7.64;78.19
68943;DHT22;60852;52.190;4.422;2022-11-14T02:34:24;7.60;78.33
68943;DHT22;60852;52.190;4.422;2022-11-14T02:36:49;7.50;78.50
68943;DHT22;60852;52.190;4.422;2022-11-14T02:39:15;7.40;78.83
68943;DHT22;60852;52.190;4.422;2022-11-14T02:41:41;7.30;79.23
68943;DHT22;60852;52.190;4.422;2022-11-14T02:44:06;7.19;79.54
68943;DHT22;60852;52.190;4.422;2022-11-14T02:46:32;7.14;79.89
68943;DHT22;60852;52.190;4.422;2022-11-14T02:48:57;7.11;80.07
68943;DHT22;60852;52.190;4.422;2022-11-14T02:51:23;7.09;80.07
68943;DHT22;60852;52.190;4.422;2022-11-14T02:53:48;7.15;79.85
68943;DHT22;60852;52.190;4.422;2022-11-14T02:56:14;7.14;79.89
68943;DHT22;60852;52.190;4.422;2022-11-14T02:58:39;7.09;79.89
68943;DHT22;60852;52.190;4.422;2022-11-14T03:01:05;7.06;80.03
68943;DHT22;60852;52.190;4.422;2022-11-14T03:03:30;6.99;79.81
68943;DHT22;60852;52.190;4.422;2022-11-14T03:06:00;6.98;80.25
68943;DHT22;60852;52.190;4.422;2022-11-14T03:08:26;7.01;80.11
68943;DHT22;60852;52.190;4.422;2022-11-14T03:10:52;7.05;79.85
68943;DHT22;60852;52.190;4.422;2022-11-14T03:13:17;7.06;79.82
68943;DHT22;60852;52.190;4.422;2022-11-14T03:15:43;7.06;79.67
68943;DHT22;60852;52.190;4.422;2022-11-14T03:18:08;7.05;79.52
68943;DHT22;60852;52.190;4.422;2022-11-14T03:20:34;7.08;79.63
68943;DHT22;60852;52.190;4.422;2022-11-14T03:22:59;7.08;79.54
68943;DHT22;60852;52.190;4.422;2022-11-14T03:25:25;7.14;79.62
68943;DHT22;60852;52.190;4.422;2022-11-14T03:27:50;7.15;79.43
68943;DHT22;60852;52.190;4.422;2022-11-14T03:30:16;7.20;79.20
68943;DHT22;60852;52.190;4.422;2022-11-14T03:32:41;7.26;79.12
68943;DHT22;60852;52.190;4.422;2022-11-14T03:35:07;7.29;78.93
68943;DHT22;60852;52.190;4.422;2022-11-14T03:37:33;7.29;78.85
68943;DHT22;60852;52.190;4.422;2022-11-14T03:39:58;7.29;78.74
68943;DHT22;60852;52.190;4.422;2022-11-14T03:42:24;7.32;78.50
68943;DHT22;60852;52.190;4.422;2022-11-14T03:44:49;7.33;78.47
68943;DHT22;60852;52.190;4.422;2022-11-14T03:47:15;7.30;78.19
68943;DHT22;60852;52.190;4.422;2022-11-14T03:49:40;7.29;78.39
68943;DHT22;60852;52.190;4.422;2022-11-14T03:52:06;7.27;78.46
68943;DHT22;60852;52.190;4.422;2022-11-14T03:54:31;7.26;78.35
68943;DHT22;60852;52.190;4.422;2022-11-14T03:56:57;7.19;78.39
68943;DHT22;60852;52.190;4.422;2022-11-14T03:59:22;7.20;78.55
68943;DHT22;60852;52.190;4.422;2022-11-14T04:01:47;7.18;78.71
68943;DHT22;60852;52.190;4.422;2022-11-14T04:04:13;7.09;78.89
68943;DHT22;60852;52.190;4.422;2022-11-14T04:06:39;7.05;79.08
68943;DHT22;60852;52.190;4.422;2022-11-14T04:09:05;7.02;79.35
68943;DHT22;60852;52.190;4.422;2022-11-14T04:11:31;6.99;79.32
68943;DHT22;60852;52.190;4.422;2022-11-14T04:13:56;6.99;79.63
68943;DHT22;60852;52.190;4.422;2022-11-14T04:16:23;6.96;79.39
68943;DHT22;60852;52.190;4.422;2022-11-14T04:18:48;6.87;79.57
68943;DHT22;60852;52.190;4.422;2022-11-14T04:21:14;6.83;80.03
68943;DHT22;60852;52.190;4.422;2022-11-14T04:23:39;6.85;80.11
68943;DHT22;60852;52.190;4.422;2022-11-14T04:26:05;6.92;79.73
68943;DHT22;60852;52.190;4.422;2022-11-14T04:28:30;6.92;79.58
68943;DHT22;60852;52.190;4.422;2022-11-14T04:30:56;6.89;79.68
68943;DHT22;60852;52.190;4.422;2022-11-14T04:33:21;6.87;79.65
68943;DHT22;60852;52.190;4.422;2022-11-14T04:35:47;6.83;79.65
68943;DHT22;60852;52.190;4.422;2022-11-14T04:38:12;6.83;79.76
68943;DHT22;60852;52.190;4.422;2022-11-14T04:40:38;6.77;79.70
68943;DHT22;60852;52.190;4.422;2022-11-14T04:43:03;6.77;79.91
68943;DHT22;60852;52.190;4.422;2022-11-14T04:45:29;6.78;80.02
68943;DHT22;60852;52.190;4.422;2022-11-14T04:47:54;6.80;79.93
68943;DHT22;60852;52.190;4.422;2022-11-14T04:50:19;6.80;79.81
68943;DHT22;60852;52.190;4.422;2022-11-14T04:52:45;6.80;79.66
68943;DHT22;60852;52.190;4.422;2022-11-14T04:55:10;6.75;79.70
68943;DHT22;60852;52.190;4.422;2022-11-14T04:57:36;6.74;79.77
68943;DHT22;60852;52.190;4.422;2022-11-14T05:00:03;6.77;79.77
68943;DHT22;60852;52.190;4.422;2022-11-14T05:02:30;6.74;79.61
68943;DHT22;60852;52.190;4.422;2022-11-14T05:04:56;6.74;79.59
68943;DHT22;60852;52.190;4.422;2022-11-14T05:07:22;6.70;79.45
68943;DHT22;60852;52.190;4.422;2022-11-14T05:09:47;6.68;79.65
68943;DHT22;60852;52.190;4.422;2022-11-14T05:12:12;6.65;79.80
68943;DHT22;60852;52.190;4.422;2022-11-14T05:14:38;6.58;79.71
68943;DHT22;60852;52.190;4.422;2022-11-14T05:17:03;6.54;79.90
68943;DHT22;60852;52.190;4.422;2022-11-14T05:19:29;6.58;80.20
68943;DHT22;60852;52.190;4.422;2022-11-14T05:21:54;6.51;79.96
68943;DHT22;60852;52.190;4.422;2022-11-14T05:24:19;6.53;80.07
68943;DHT22;60852;52.190;4.422;2022-11-14T05:26:45;6.51;80.03
68943;DHT22;60852;52.190;4.422;2022-11-14T05:29:10;6.53;79.96
68943;DHT22;60852;52.190;4.422;2022-11-14T05:31:36;6.53;80.03
68943;DHT22;60852;52.190;4.422;2022-11-14T05:34:01;6.54;79.96
68943;DHT22;60852;52.190;4.422;2022-11-14T05:36:27;6.54;79.93
68943;DHT22;60852;52.190;4.422;2022-11-14T05:38:53;6.55;79.78
68943;DHT22;60852;52.190;4.422;2022-11-14T05:41:19;6.54;79.58
68943;DHT22;60852;52.190;4.422;2022-11-14T05:43:44;6.54;79.52
68943;DHT22;60852;52.190;4.422;2022-11-14T05:46:12;6.54;79.42
68943;DHT22;60852;52.190;4.422;2022-11-14T05:48:38;6.53;79.43
68943;DHT22;60852;52.190;4.422;2022-11-14T05:51:05;6.46;79.07
68943;DHT22;60852;52.190;4.422;2022-11-14T05:53:32;6.43;79.30
68943;DHT22;60852;52.190;4.422;2022-11-14T05:56:03;6.41;79.27
68943;DHT22;60852;52.190;4.422;2022-11-14T05:58:33;6.36;79.38
68943;DHT22;60852;52.190;4.422;2022-11-14T06:03:35;6.34;79.60
68943;DHT22;60852;52.190;4.422;2022-11-14T06:06:03;6.37;79.44
68943;DHT22;60852;52.190;4.422;2022-11-14T06:08:30;6.38;79.43
68943;DHT22;60852;52.190;4.422;2022-11-14T06:11:01;6.38;79.54
68943;DHT22;60852;52.190;4.422;2022-11-14T06:13:27;6.38;79.15
68943;DHT22;60852;52.190;4.422;2022-11-14T06:15:58;6.41;79.22
68943;DHT22;60852;52.190;4.422;2022-11-14T06:18:24;6.37;78.90
68943;DHT22;60852;52.190;4.422;2022-11-14T06:20:50;6.33;79.24
68943;DHT22;60852;52.190;4.422;2022-11-14T06:23:15;6.33;78.98
68943;DHT22;60852;52.190;4.422;2022-11-14T06:25:40;6.27;79.10
68943;DHT22;60852;52.190;4.422;2022-11-14T06:28:06;6.26;79.11
68943;DHT22;60852;52.190;4.422;2022-11-14T06:30:31;6.25;79.12
68943;DHT22;60852;52.190;4.422;2022-11-14T06:32:57;6.25;78.99
68943;DHT22;60852;52.190;4.422;2022-11-14T06:35:26;6.17;79.08
68943;DHT22;60852;52.190;4.422;2022-11-14T06:37:52;6.15;79.15
68943;DHT22;60852;52.190;4.422;2022-11-14T06:40:17;6.22;79.13
68943;DHT22;60852;52.190;4.422;2022-11-14T06:42:43;6.17;79.27
68943;DHT22;60852;52.190;4.422;2022-11-14T06:45:09;6.10;79.06
68943;DHT22;60852;52.190;4.422;2022-11-14T06:47:34;6.13;79.16
68943;DHT22;60852;52.190;4.422;2022-11-14T06:50:00;6.10;79.36
68943;DHT22;60852;52.190;4.422;2022-11-14T06:52:25;6.13;79.37
68943;DHT22;60852;52.190;4.422;2022-11-14T06:54:51;6.10;79.27
68943;DHT22;60852;52.190;4.422;2022-11-14T06:57:17;6.10;79.20
68943;DHT22;60852;52.190;4.422;2022-11-14T06:59:43;6.12;79.31
68943;DHT22;60852;52.190;4.422;2022-11-14T07:02:12;6.15;79.44
68943;DHT22;60852;52.190;4.422;2022-11-14T07:04:38;6.13;79.10
68943;DHT22;60852;52.190;4.422;2022-11-14T07:07:03;6.07;79.11
68943;DHT22;60852;52.190;4.422;2022-11-14T07:09:29;6.06;79.19
68943;DHT22;60852;52.190;4.422;2022-11-14T07:11:54;6.09;79.26
68943;DHT22;60852;52.190;4.422;2022-11-14T07:14:19;6.05;79.26
68943;DHT22;60852;52.190;4.422;2022-11-14T07:16:45;6.10;79.17
68943;DHT22;60852;52.190;4.422;2022-11-14T07:19:11;6.07;79.30
68943;DHT22;60852;52.190;4.422;2022-11-14T07:21:36;6.12;79.23
68943;DHT22;60852;52.190;4.422;2022-11-14T07:24:02;6.16;78.98
68943;DHT22;60852;52.190;4.422;2022-11-14T07:26:28;6.09;78.75
68943;DHT22;60852;52.190;4.422;2022-11-14T07:28:53;6.07;78.92
68943;DHT22;60852;52.190;4.422;2022-11-14T07:31:19;6.06;78.98
68943;DHT22;60852;52.190;4.422;2022-11-14T07:33:45;6.05;79.35
68943;DHT22;60852;52.190;4.422;2022-11-14T07:36:12;6.12;79.39
68943;DHT22;60852;52.190;4.422;2022-11-14T07:38:39;6.17;78.95
68943;DHT22;60852;52.190;4.422;2022-11-14T07:41:07;6.15;78.93
68943;DHT22;60852;52.190;4.422;2022-11-14T07:43:34;6.27;78.96
68943;DHT22;60852;52.190;4.422;2022-11-14T07:46:02;6.30;78.87
68943;DHT22;60852;52.190;4.422;2022-11-14T07:48:28;6.32;78.85
68943;DHT22;60852;52.190;4.422;2022-11-14T07:51:05;6.34;78.50
68943;DHT22;60852;52.190;4.422;2022-11-14T07:53:32;6.32;78.56
68943;DHT22;60852;52.190;4.422;2022-11-14T07:56:03;6.32;78.49
68943;DHT22;60852;52.190;4.422;2022-11-14T07:58:29;6.36;78.37
68943;DHT22;60852;52.190;4.422;2022-11-14T08:00:59;6.32;78.23
68943;DHT22;60852;52.190;4.422;2022-11-14T08:03:25;6.29;78.71
68943;DHT22;60852;52.190;4.422;2022-11-14T08:05:50;6.30;78.73
68943;DHT22;60852;52.190;4.422;2022-11-14T08:08:15;6.29;78.67
68943;DHT22;60852;52.190;4.422;2022-11-14T08:10:41;6.34;78.67
68943;DHT22;60852;52.190;4.422;2022-11-14T08:13:06;6.37;78.68
68943;DHT22;60852;52.190;4.422;2022-11-14T08:15:32;6.41;78.66
68943;DHT22;60852;52.190;4.422;2022-11-14T08:17:59;6.46;78.52
68943;DHT22;60852;52.190;4.422;2022-11-14T08:20:26;6.51;78.37
68943;DHT22;60852;52.190;4.422;2022-11-14T08:23:02;6.60;78.27
68943;DHT22;60852;52.190;4.422;2022-11-14T08:25:28;6.63;77.99
68943;DHT22;60852;52.190;4.422;2022-11-14T08:27:53;6.65;78.02
68943;DHT22;60852;52.190;4.422;2022-11-14T08:30:19;6.70;77.89
68943;DHT22;60852;52.190;4.422;2022-11-14T08:32:44;6.78;77.63
68943;DHT22;60852;52.190;4.422;2022-11-14T08:35:10;6.81;77.60
68943;DHT22;60852;52.190;4.422;2022-11-14T08:37:36;6.87;77.41
68943;DHT22;60852;52.190;4.422;2022-11-14T08:40:01;6.94;77.38
68943;DHT22;60852;52.190;4.422;2022-11-14T08:42:27;6.98;77.15
68943;DHT22;60852;52.190;4.422;2022-11-14T08:44:53;7.02;77.26
68943;DHT22;60852;52.190;4.422;2022-11-14T08:47:18;7.09;77.02
68943;DHT22;60852;52.190;4.422;2022-11-14T08:49:43;7.15;76.92
68943;DHT22;60852;52.190;4.422;2022-11-14T08:52:09;7.16;76.44
68943;DHT22;60852;52.190;4.422;2022-11-14T08:54:34;7.11;76.33
68943;DHT22;60852;52.190;4.422;2022-11-14T08:57:00;7.09;76.43
68943;DHT22;60852;52.190;4.422;2022-11-14T08:59:25;7.14;76.32
68943;DHT22;60852;52.190;4.422;2022-11-14T09:01:51;7.27;76.28
68943;DHT22;60852;52.190;4.422;2022-11-14T09:04:16;7.40;75.83
68943;DHT22;60852;52.190;4.422;2022-11-14T09:06:42;7.42;75.18
68943;DHT22;60852;52.190;4.422;2022-11-14T09:09:07;7.47;75.12
68943;DHT22;60852;52.190;4.422;2022-11-14T09:11:33;7.57;75.07
68943;DHT22;60852;52.190;4.422;2022-11-14T09:13:58;7.64;74.85
68943;DHT22;60852;52.190;4.422;2022-11-14T09:16:25;7.74;74.53
68943;DHT22;60852;52.190;4.422;2022-11-14T09:18:51;7.81;74.22
68943;DHT22;60852;52.190;4.422;2022-11-14T09:21:16;7.80;73.89
68943;DHT22;60852;52.190;4.422;2022-11-14T09:23:41;7.87;74.05
68943;DHT22;60852;52.190;4.422;2022-11-14T09:26:08;7.93;74.02
68943;DHT22;60852;52.190;4.422;2022-11-14T09:28:35;8.01;73.54
68943;DHT22;60852;52.190;4.422;2022-11-14T09:31:03;8.02;73.43
68943;DHT22;60852;52.190;4.422;2022-11-14T09:33:29;8.05;73.07
68943;DHT22;60852;52.190;4.422;2022-11-14T09:35:56;8.08;73.05
68943;DHT22;60852;52.190;4.422;2022-11-14T09:38:22;8.21;72.88
68943;DHT22;60852;52.190;4.422;2022-11-14T09:41:07;8.26;72.44
68943;DHT22;60852;52.190;4.422;2022-11-14T09:46:21;8.35;72.29
68943;DHT22;60852;52.190;4.422;2022-11-14T09:48:48;8.45;72.14
68943;DHT22;60852;52.190;4.422;2022-11-14T09:51:19;8.50;72.28
68943;DHT22;60852;52.190;4.422;2022-11-14T09:53:47;8.50;72.06
68943;DHT22;60852;52.190;4.422;2022-11-14T09:56:21;8.55;71.88
68943;DHT22;60852;52.190;4.422;2022-11-14T09:58:49;8.57;71.97
68943;DHT22;60852;52.190;4.422;2022-11-14T10:04:12;8.62;71.85
68943;DHT22;60852;52.190;4.422;2022-11-14T10:09:20;8.67;72.01
68943;DHT22;60852;52.190;4.422;2022-11-14T10:12:11;8.73;71.87
68943;DHT22;60852;52.190;4.422;2022-11-14T10:20:02;9.00;72.03
68943;DHT22;60852;52.190;4.422;2022-11-14T10:22:51;10.04;70.22
68943;DHT22;60852;52.190;4.422;2022-11-14T10:30:37;11.63;63.88
68943;DHT22;60852;52.190;4.422;2022-11-14T10:33:41;12.09;61.89
68943;DHT22;60852;52.190;4.422;2022-11-14T10:39:17;12.42;60.05
68943;DHT22;60852;52.190;4.422;2022-11-14T10:41:48;12.26;59.87
68943;DHT22;60852;52.190;4.422;2022-11-14T10:44:20;12.29;60.20
68943;DHT22;60852;52.190;4.422;2022-11-14T10:46:53;12.30;60.71
68943;DHT22;60852;52.190;4.422;2022-11-14T10:49:23;12.08;61.18
68943;DHT22;60852;52.190;4.422;2022-11-14T10:51:53;11.99;61.74
68943;DHT22;60852;52.190;4.422;2022-11-14T10:54:43;12.17;61.70
68943;DHT22;60852;52.190;4.422;2022-11-14T10:57:18;12.39;61.05
68943;DHT22;60852;52.190;4.422;2022-11-14T10:59:44;12.43;60.71
68943;DHT22;60852;52.190;4.422;2022-11-14T11:02:10;12.53;60.65
68943;DHT22;60852;52.190;4.422;2022-11-14T11:04:40;12.72;60.11
68943;DHT22;60852;52.190;4.422;2022-11-14T11:09:34;12.59;60.57
68943;DHT22;60852;52.190;4.422;2022-11-14T11:12:21;12.28;61.02
68943;DHT22;60852;52.190;4.422;2022-11-14T11:15:06;12.08;62.06
68943;DHT22;60852;52.190;4.422;2022-11-14T11:17:33;12.06;62.61
68943;DHT22;60852;52.190;4.422;2022-11-14T11:25:38;11.40;64.45
68943;DHT22;60852;52.190;4.422;2022-11-14T11:28:13;11.30;65.03
68943;DHT22;60852;52.190;4.422;2022-11-14T11:30:54;11.20;65.92
68943;DHT22;60852;52.190;4.422;2022-11-14T11:33:23;11.16;65.96
68943;DHT22;60852;52.190;4.422;2022-11-14T11:35:54;11.12;65.98
68943;DHT22;60852;52.190;4.422;2022-11-14T11:38:21;10.96;66.73
68943;DHT22;60852;52.190;4.422;2022-11-14T11:40:52;10.99;67.16
68943;DHT22;60852;52.190;4.422;2022-11-14T11:43:55;11.05;67.25
68943;DHT22;60852;52.190;4.422;2022-11-14T11:46:49;11.05;67.60
68943;DHT22;60852;52.190;4.422;2022-11-14T11:49:49;11.08;67.71
68943;DHT22;60852;52.190;4.422;2022-11-14T11:55:15;10.98;68.04
68943;DHT22;60852;52.190;4.422;2022-11-14T11:57:45;11.02;68.62
68943;DHT22;60852;52.190;4.422;2022-11-14T12:02:47;11.03;68.36
68943;DHT22;60852;52.190;4.422;2022-11-14T12:08:04;11.15;68.68
68943;DHT22;60852;52.190;4.422;2022-11-14T12:10:37;11.09;68.93
68943;DHT22;60852;52.190;4.422;2022-11-14T12:16:12;11.19;68.74
68943;DHT22;60852;52.190;4.422;2022-11-14T12:21:33;11.12;69.26
68943;DHT22;60852;52.190;4.422;2022-11-14T12:24:32;11.15;69.38
68943;DHT22;60852;52.190;4.422;2022-11-14T12:32:48;11.30;69.61
68943;DHT22;60852;52.190;4.422;2022-11-14T12:35:22;11.37;69.38
68943;DHT22;60852;52.190;4.422;2022-11-14T12:37:51;11.41;69.61
68943;DHT22;60852;52.190;4.422;2022-11-14T12:42:47;11.49;69.45
68943;DHT22;60852;52.190;4.422;2022-11-14T12:48:19;11.53;69.65
68943;DHT22;60852;52.190;4.422;2022-11-14T12:50:46;11.61;69.61
68943;DHT22;60852;52.190;4.422;2022-11-14T12:58:34;11.73;70.08
68943;DHT22;60852;52.190;4.422;2022-11-14T13:06:25;11.85;69.63
68943;DHT22;60852;52.190;4.422;2022-11-14T13:12:17;11.71;69.54
68943;DHT22;60852;52.190;4.422;2022-11-14T13:18:24;11.64;69.85
68943;DHT22;60852;52.190;4.422;2022-11-14T13:21:19;11.64;70.36
68943;DHT22;60852;52.190;4.422;2022-11-14T13:24:04;11.67;70.17
68943;DHT22;60852;52.190;4.422;2022-11-14T13:28:55;11.74;70.15
68943;DHT22;60852;52.190;4.422;2022-11-14T13:31:43;11.78;70.55
68943;DHT22;60852;52.190;4.422;2022-11-14T13:45:51;11.50;71.06
68943;DHT22;60852;52.190;4.422;2022-11-14T13:51:10;11.31;71.52
68943;DHT22;60852;52.190;4.422;2022-11-14T13:53:39;11.31;71.84
68943;DHT22;60852;52.190;4.422;2022-11-14T13:59:07;11.36;72.05
68943;DHT22;60852;52.190;4.422;2022-11-14T14:10:40;11.36;71.46
68943;DHT22;60852;52.190;4.422;2022-11-14T14:21:09;11.40;71.23
68943;DHT22;60852;52.190;4.422;2022-11-14T14:24:14;11.47;71.27
68943;DHT22;60852;52.190;4.422;2022-11-14T14:26:59;11.43;70.94
68943;DHT22;60852;52.190;4.422;2022-11-14T14:32:18;11.51;70.91
68943;DHT22;60852;52.190;4.422;2022-11-14T14:34:43;11.51;70.76
68943;DHT22;60852;52.190;4.422;2022-11-14T14:37:24;11.46;70.68
68943;DHT22;60852;52.190;4.422;2022-11-14T14:39:59;11.37;70.63
68943;DHT22;60852;52.190;4.422;2022-11-14T14:42:28;11.31;70.97
68943;DHT22;60852;52.190;4.422;2022-11-14T14:44:56;11.33;70.98
68943;DHT22;60852;52.190;4.422;2022-11-14T14:47:43;11.40;70.94
68943;DHT22;60852;52.190;4.422;2022-11-14T14:50:36;11.40;70.61
68943;DHT22;60852;52.190;4.422;2022-11-14T14:53:03;11.33;70.75
68943;DHT22;60852;52.190;4.422;2022-11-14T14:55:34;11.36;70.67
68943;DHT22;60852;52.190;4.422;2022-11-14T14:58:32;11.39;70.64
68943;DHT22;60852;52.190;4.422;2022-11-14T15:01:02;11.33;70.62
68943;DHT22;60852;52.190;4.422;2022-11-14T15:03:39;11.29;70.66
68943;DHT22;60852;52.190;4.422;2022-11-14T15:06:25;11.30;70.75
68943;DHT22;60852;52.190;4.422;2022-11-14T15:09:02;11.24;70.74
68943;DHT22;60852;52.190;4.422;2022-11-14T15:11:33;11.27;70.91
68943;DHT22;60852;52.190;4.422;2022-11-14T15:14:00;11.26;70.99
68943;DHT22;60852;52.190;4.422;2022-11-14T15:16:28;11.20;70.97
68943;DHT22;60852;52.190;4.422;2022-11-14T15:18:56;11.13;71.15
68943;DHT22;60852;52.190;4.422;2022-11-14T15:21:27;11.13;71.21
68943;DHT22;60852;52.190;4.422;2022-11-14T15:24:01;11.10;71.46
68943;DHT22;60852;52.190;4.422;2022-11-14T15:26:29;11.05;71.70
68943;DHT22;60852;52.190;4.422;2022-11-14T15:31:46;10.98;71.96
68943;DHT22;60852;52.190;4.422;2022-11-14T15:34:28;10.93;72.03
68943;DHT22;60852;52.190;4.422;2022-11-14T15:39:38;10.88;72.15
68943;DHT22;60852;52.190;4.422;2022-11-14T15:44:39;10.83;72.02
68943;DHT22;60852;52.190;4.422;2022-11-14T15:47:11;10.82;72.06
68943;DHT22;60852;52.190;4.422;2022-11-14T15:49:37;10.81;72.09
68943;DHT22;60852;52.190;4.422;2022-11-14T15:52:03;10.75;72.27
68943;DHT22;60852;52.190;4.422;2022-11-14T15:54:34;10.68;73.09
68943;DHT22;60852;52.190;4.422;2022-11-14T15:57:14;10.50;74.04
68943;DHT22;60852;52.190;4.422;2022-11-14T15:59:41;10.42;74.57
68943;DHT22;60852;52.190;4.422;2022-11-14T16:02:27;10.23;75.15
68943;DHT22;60852;52.190;4.422;2022-11-14T16:04:54;10.12;75.86
68943;DHT22;60852;52.190;4.422;2022-11-14T16:07:21;10.06;76.23
68943;DHT22;60852;52.190;4.422;2022-11-14T16:09:46;9.96;76.43
68943;DHT22;60852;52.190;4.422;2022-11-14T16:12:12;9.83;76.51
68943;DHT22;60852;52.190;4.422;2022-11-14T16:14:37;9.69;76.85
68943;DHT22;60852;52.190;4.422;2022-11-14T16:17:03;9.59;77.18
68943;DHT22;60852;52.190;4.422;2022-11-14T16:19:29;9.49;77.50
68943;DHT22;60852;52.190;4.422;2022-11-14T16:21:58;9.49;77.37
68943;DHT22;60852;52.190;4.422;2022-11-14T16:24:27;9.39;77.46
68943;DHT22;60852;52.190;4.422;2022-11-14T16:26:53;9.35;77.58
68943;DHT22;60852;52.190;4.422;2022-11-14T16:29:18;9.31;77.71
68943;DHT22;60852;52.190;4.422;2022-11-14T16:31:44;9.31;77.71
68943;DHT22;60852;52.190;4.422;2022-11-14T16:34:21;9.30;77.66
68943;DHT22;60852;52.190;4.422;2022-11-14T16:36:56;9.32;77.61
68943;DHT22;60852;52.190;4.422;2022-11-14T16:39:22;9.27;77.51
68943;DHT22;60852;52.190;4.422;2022-11-14T16:41:48;9.20;77.77
68943;DHT22;60852;52.190;4.422;2022-11-14T16:44:14;9.18;77.71
68943;DHT22;60852;52.190;4.422;2022-11-14T16:46:44;9.07;78.00
68943;DHT22;60852;52.190;4.422;2022-11-14T16:49:18;9.07;78.11
68943;DHT22;60852;52.190;4.422;2022-11-14T16:51:47;9.01;78.13
68943;DHT22;60852;52.190;4.422;2022-11-14T16:54:13;9.04;78.12
68943;DHT22;60852;52.190;4.422;2022-11-14T16:56:39;8.97;78.38
68943;DHT22;60852;52.190;4.422;2022-11-14T16:59:05;9.03;78.24
68943;DHT22;60852;52.190;4.422;2022-11-14T17:01:30;8.94;78.14
68943;DHT22;60852;52.190;4.422;2022-11-14T17:03:56;8.88;78.38
68943;DHT22;60852;52.190;4.422;2022-11-14T17:06:25;8.93;78.44
68943;DHT22;60852;52.190;4.422;2022-11-14T17:08:58;8.93;78.27
68943;DHT22;60852;52.190;4.422;2022-11-14T17:11:25;8.84;78.48
68943;DHT22;60852;52.190;4.422;2022-11-14T17:13:50;8.76;78.72
68943;DHT22;60852;52.190;4.422;2022-11-14T17:16:16;8.80;78.66
68943;DHT22;60852;52.190;4.422;2022-11-14T17:18:42;8.79;78.64
68943;DHT22;60852;52.190;4.422;2022-11-14T17:21:10;8.70;79.54
68943;DHT22;60852;52.190;4.422;2022-11-14T17:23:36;8.77;79.66
68943;DHT22;60852;52.190;4.422;2022-11-14T17:26:06;8.77;79.17
68943;DHT22;60852;52.190;4.422;2022-11-14T17:28:33;8.74;78.86
68943;DHT22;60852;52.190;4.422;2022-11-14T17:30:59;8.72;78.92
68943;DHT22;60852;52.190;4.422;2022-11-14T17:33:24;8.69;78.88
68943;DHT22;60852;52.190;4.422;2022-11-14T17:35:50;8.67;79.23
68943;DHT22;60852;52.190;4.422;2022-11-14T17:38:15;8.69;79.37
68943;DHT22;60852;52.190;4.422;2022-11-14T17:40:41;8.72;78.93
68943;DHT22;60852;52.190;4.422;2022-11-14T17:43:06;8.66;78.85
68943;DHT22;60852;52.190;4.422;2022-11-14T17:45:32;8.67;78.95
68943;DHT22;60852;52.190;4.422;2022-11-14T17:47:57;8.64;79.10
68943;DHT22;60852;52.190;4.422;2022-11-14T17:50:23;8.63;79.28
68943;DHT22;60852;52.190;4.422;2022-11-14T17:52:48;8.64;79.34
68943;DHT22;60852;52.190;4.422;2022-11-14T17:55:14;8.59;79.53
68943;DHT22;60852;52.190;4.422;2022-11-14T17:57:39;8.60;79.50